sensor_id;sensor_type;location;lat;lon;timestamp;temperature;humidity
22923;DHT22;11627;51.322;22.816;2023-07-20T00:02:10;17.40;1.00
22923;DHT22;11627;51.322;22.816;2023-07-20T00:04:37;17.40;1.00
22923;DHT22;11627;51.322;22.816;2023-07-20T00:07:04;17.30;1.00
22923;DHT22;11627;51.322;22.816;2023-07-20T00:09:32;17.30;1.00
22923;DHT22;11627;51.322;22.816;2023-07-20T00:11:59;17.20;1.00
22923;DHT22;11627;51.322;22.816;2023-07-20T00:14:26;17.30;1.00
22923;DHT22;11627;51.322;22.816;2023-07-20T00:16:55;17.20;1.00
22923;DHT22;11627;51.322;22.816;2023-07-20T00:19:27;17.20;1.00
22923;DHT22;11627;51.322;22.816;2023-07-20T00:21:56;17.10;1.00
22923;DHT22;11627;51.322;22.816;2023-07-20T00:24:23;17.10;1.00
22923;DHT22;11627;51.322;22.816;2023-07-20T00:26:50;17.10;1.00
22923;DHT22;11627;51.322;22.816;2023-07-20T00:29:19;17.10;1.00
22923;DHT22;11627;51.322;22.816;2023-07-20T00:31:46;17.20;1.00
22923;DHT22;11627;51.322;22.816;2023-07-20T00:34:14;17.20;1.00
22923;DHT22;11627;51.322;22.816;2023-07-20T00:36:41;17.20;1.00
22923;DHT22;11627;51.322;22.816;2023-07-20T00:39:08;17.20;1.00
22923;DHT22;11627;51.322;22.816;2023-07-20T00:41:35;17.20;1.00
22923;DHT22;11627;51.322;22.816;2023-07-20T00:44:02;17.10;1.00
22923;DHT22;11627;51.322;22.816;2023-07-20T00:46:30;17.10;1.00
22923;DHT22;11627;51.322;22.816;2023-07-20T00:48:58;17.10;1.00
22923;DHT22;11627;51.322;22.816;2023-07-20T00:51:26;17.20;1.00
22923;DHT22;11627;51.322;22.816;2023-07-20T00:53:54;17.20;1.00
22923;DHT22;11627;51.322;22.816;2023-07-20T00:56:22;17.10;1.00
22923;DHT22;11627;51.322;22.816;2023-07-20T00:58:49;17.10;1.00
22923;DHT22;11627;51.322;22.816;2023-07-20T01:01:16;17.10;1.00
22923;DHT22;11627;51.322;22.816;2023-07-20T01:03:43;17.10;1.00
22923;DHT22;11627;51.322;22.816;2023-07-20T01:12:41;16.90;1.00
22923;DHT22;11627;51.322;22.816;2023-07-20T01:15:14;16.80;1.00
22923;DHT22;11627;51.322;22.816;2023-07-20T01:17:41;16.80;1.00
22923;DHT22;11627;51.322;22.816;2023-07-20T01:20:10;16.60;1.00
22923;DHT22;11627;51.322;22.816;2023-07-20T01:29:52;16.60;9.40
22923;DHT22;11627;51.322;22.816;2023-07-20T01:32:31;16.60;4.30
22923;DHT22;11627;51.322;22.816;2023-07-20T01:35:00;16.60;1.00
22923;DHT22;11627;51.322;22.816;2023-07-20T01:37:30;16.60;4.70
22923;DHT22;11627;51.322;22.816;2023-07-20T01:39:59;16.60;14.20
22923;DHT22;11627;51.322;22.816;2023-07-20T01:42:27;16.60;4.30
22923;DHT22;11627;51.322;22.816;2023-07-20T01:44:54;16.60;1.00
22923;DHT22;11627;51.322;22.816;2023-07-20T01:47:20;16.60;1.00
22923;DHT22;11627;51.322;22.816;2023-07-20T01:49:47;16.50;1.00
22923;DHT22;11627;51.322;22.816;2023-07-20T01:52:14;16.50;1.00
22923;DHT22;11627;51.322;22.816;2023-07-20T01:54:42;16.40;1.00
22923;DHT22;11627;51.322;22.816;2023-07-20T01:57:09;16.30;1.00
22923;DHT22;11627;51.322;22.816;2023-07-20T01:59:35;16.30;1.00
22923;DHT22;11627;51.322;22.816;2023-07-20T02:02:02;16.30;1.00
22923;DHT22;11627;51.322;22.816;2023-07-20T02:04:29;16.30;1.00
22923;DHT22;11627;51.322;22.816;2023-07-20T02:06:57;16.20;1.00
22923;DHT22;11627;51.322;22.816;2023-07-20T02:09:24;16.20;1.00
22923;DHT22;11627;51.322;22.816;2023-07-20T02:11:51;16.20;1.00
22923;DHT22;11627;51.322;22.816;2023-07-20T02:14:18;16.20;1.00
22923;DHT22;11627;51.322;22.816;2023-07-20T02:16:45;16.20;1.00
22923;DHT22;11627;51.322;22.816;2023-07-20T02:19:14;16.10;1.00
22923;DHT22;11627;51.322;22.816;2023-07-20T02:21:41;16.10;1.00
22923;DHT22;11627;51.322;22.816;2023-07-20T02:24:08;16.10;1.00
22923;DHT22;11627;51.322;22.816;2023-07-20T02:26:36;16.10;1.00
22923;DHT22;11627;51.322;22.816;2023-07-20T02:29:03;16.00;1.00
22923;DHT22;11627;51.322;22.816;2023-07-20T02:31:31;16.00;1.00
22923;DHT22;11627;51.322;22.816;2023-07-20T02:33:58;15.90;1.00
22923;DHT22;11627;51.322;22.816;2023-07-20T02:36:26;15.90;1.00
22923;DHT22;11627;51.322;22.816;2023-07-20T02:38:52;15.90;1.00
22923;DHT22;11627;51.322;22.816;2023-07-20T02:41:19;15.90;1.00
22923;DHT22;11627;51.322;22.816;2023-07-20T02:43:47;15.90;1.00
22923;DHT22;11627;51.322;22.816;2023-07-20T02:46:14;15.90;1.00
22923;DHT22;11627;51.322;22.816;2023-07-20T02:48:41;15.90;1.00
22923;DHT22;11627;51.322;22.816;2023-07-20T02:51:09;15.90;1.00
22923;DHT22;11627;51.322;22.816;2023-07-20T02:53:38;15.80;1.00
22923;DHT22;11627;51.322;22.816;2023-07-20T02:56:05;15.80;1.00
22923;DHT22;11627;51.322;22.816;2023-07-20T02:58:33;15.80;2.10
22923;DHT22;11627;51.322;22.816;2023-07-20T03:01:03;15.80;8.00
22923;DHT22;11627;51.322;22.816;2023-07-20T03:03:31;15.90;8.50
22923;DHT22;11627;51.322;22.816;2023-07-20T03:05:59;15.90;9.70
22923;DHT22;11627;51.322;22.816;2023-07-20T03:08:27;16.00;9.00
22923;DHT22;11627;51.322;22.816;2023-07-20T03:10:55;16.10;6.50
22923;DHT22;11627;51.322;22.816;2023-07-20T03:13:21;16.10;7.00
22923;DHT22;11627;51.322;22.816;2023-07-20T03:15:52;16.20;9.20
22923;DHT22;11627;51.322;22.816;2023-07-20T03:18:19;16.20;9.10
22923;DHT22;11627;51.322;22.816;2023-07-20T03:20:46;16.20;9.40
22923;DHT22;11627;51.322;22.816;2023-07-20T03:23:15;16.20;11.80
22923;DHT22;11627;51.322;22.816;2023-07-20T03:25:43;16.30;13.30
22923;DHT22;11627;51.322;22.816;2023-07-20T03:28:10;16.30;14.80
22923;DHT22;11627;51.322;22.816;2023-07-20T03:30:38;16.40;14.80
22923;DHT22;11627;51.322;22.816;2023-07-20T03:33:05;16.50;14.20
22923;DHT22;11627;51.322;22.816;2023-07-20T03:35:32;16.50;14.40
22923;DHT22;11627;51.322;22.816;2023-07-20T03:37:59;16.50;14.90
22923;DHT22;11627;51.322;22.816;2023-07-20T03:40:25;16.60;14.00
22923;DHT22;11627;51.322;22.816;2023-07-20T03:42:52;16.70;12.20
22923;DHT22;11627;51.322;22.816;2023-07-20T03:45:19;16.70;14.90
22923;DHT22;11627;51.322;22.816;2023-07-20T03:47:46;16.70;21.20
22923;DHT22;11627;51.322;22.816;2023-07-20T03:50:15;16.70;24.10
22923;DHT22;11627;51.322;22.816;2023-07-20T03:52:42;16.80;28.10
22923;DHT22;11627;51.322;22.816;2023-07-20T03:55:10;16.80;33.70
22923;DHT22;11627;51.322;22.816;2023-07-20T03:57:37;16.80;37.80
22923;DHT22;11627;51.322;22.816;2023-07-20T04:00:05;16.90;39.90
22923;DHT22;11627;51.322;22.816;2023-07-20T04:02:34;16.90;41.50
22923;DHT22;11627;51.322;22.816;2023-07-20T04:05:01;17.00;43.30
22923;DHT22;11627;51.322;22.816;2023-07-20T04:07:28;17.00;44.70
22923;DHT22;11627;51.322;22.816;2023-07-20T04:09:55;17.20;43.50
22923;DHT22;11627;51.322;22.816;2023-07-20T04:12:23;17.20;41.90
22923;DHT22;11627;51.322;22.816;2023-07-20T04:14:50;17.30;40.10
22923;DHT22;11627;51.322;22.816;2023-07-20T04:17:18;17.30;40.30
22923;DHT22;11627;51.322;22.816;2023-07-20T04:19:45;17.30;39.30
22923;DHT22;11627;51.322;22.816;2023-07-20T04:22:14;17.40;38.90
22923;DHT22;11627;51.322;22.816;2023-07-20T04:24:47;17.40;39.70
22923;DHT22;11627;51.322;22.816;2023-07-20T04:27:15;17.50;40.60
22923;DHT22;11627;51.322;22.816;2023-07-20T04:29:43;17.40;41.20
22923;DHT22;11627;51.322;22.816;2023-07-20T04:32:12;17.50;41.50
22923;DHT22;11627;51.322;22.816;2023-07-20T04:34:42;17.50;42.50
22923;DHT22;11627;51.322;22.816;2023-07-20T04:37:09;17.60;41.00
22923;DHT22;11627;51.322;22.816;2023-07-20T04:39:39;17.60;40.70
22923;DHT22;11627;51.322;22.816;2023-07-20T04:42:08;17.60;42.60
22923;DHT22;11627;51.322;22.816;2023-07-20T04:44:37;17.50;45.10
22923;DHT22;11627;51.322;22.816;2023-07-20T04:47:07;17.50;46.10
22923;DHT22;11627;51.322;22.816;2023-07-20T04:49:39;17.50;40.40
22923;DHT22;11627;51.322;22.816;2023-07-20T04:52:08;17.40;43.50
22923;DHT22;11627;51.322;22.816;2023-07-20T04:54:37;17.30;50.20
22923;DHT22;11627;51.322;22.816;2023-07-20T04:57:11;17.20;58.50
22923;DHT22;11627;51.322;22.816;2023-07-20T04:59:40;17.10;63.80
22923;DHT22;11627;51.322;22.816;2023-07-20T05:02:09;17.20;68.30
22923;DHT22;11627;51.322;22.816;2023-07-20T05:04:36;17.10;69.40
22923;DHT22;11627;51.322;22.816;2023-07-20T05:07:04;17.20;68.90
22923;DHT22;11627;51.322;22.816;2023-07-20T05:09:32;17.20;68.40
22923;DHT22;11627;51.322;22.816;2023-07-20T05:11:59;17.20;68.60
22923;DHT22;11627;51.322;22.816;2023-07-20T05:14:26;17.10;73.20
22923;DHT22;11627;51.322;22.816;2023-07-20T05:16:53;17.20;75.80
22923;DHT22;11627;51.322;22.816;2023-07-20T05:19:22;17.10;82.50
22923;DHT22;11627;51.322;22.816;2023-07-20T05:21:50;17.00;90.60
22923;DHT22;11627;51.322;22.816;2023-07-20T05:24:18;16.90;93.70
22923;DHT22;11627;51.322;22.816;2023-07-20T05:26:46;16.80;95.70
22923;DHT22;11627;51.322;22.816;2023-07-20T05:29:15;16.80;98.10
22923;DHT22;11627;51.322;22.816;2023-07-20T05:31:42;16.80;99.60
22923;DHT22;11627;51.322;22.816;2023-07-20T05:34:12;16.80;99.90
22923;DHT22;11627;51.322;22.816;2023-07-20T05:36:42;16.80;99.90
22923;DHT22;11627;51.322;22.816;2023-07-20T05:39:09;16.70;99.90
22923;DHT22;11627;51.322;22.816;2023-07-20T05:41:37;16.70;99.90
22923;DHT22;11627;51.322;22.816;2023-07-20T05:44:05;16.70;99.90
22923;DHT22;11627;51.322;22.816;2023-07-20T05:46:34;16.70;99.90
22923;DHT22;11627;51.322;22.816;2023-07-20T05:49:03;16.80;99.90
22923;DHT22;11627;51.322;22.816;2023-07-20T05:51:31;16.80;99.90
22923;DHT22;11627;51.322;22.816;2023-07-20T05:53:58;16.90;99.90
22923;DHT22;11627;51.322;22.816;2023-07-20T05:56:27;16.90;99.90
22923;DHT22;11627;51.322;22.816;2023-07-20T05:58:54;16.80;99.90
22923;DHT22;11627;51.322;22.816;2023-07-20T06:01:24;16.70;99.90
22923;DHT22;11627;51.322;22.816;2023-07-20T06:03:54;16.70;99.90
22923;DHT22;11627;51.322;22.816;2023-07-20T06:06:20;16.80;99.90
22923;DHT22;11627;51.322;22.816;2023-07-20T06:08:49;16.80;99.90
22923;DHT22;11627;51.322;22.816;2023-07-20T06:11:18;16.70;99.90
22923;DHT22;11627;51.322;22.816;2023-07-20T06:13:46;16.70;99.90
22923;DHT22;11627;51.322;22.816;2023-07-20T06:16:13;16.70;99.90
22923;DHT22;11627;51.322;22.816;2023-07-20T06:18:41;16.70;99.90
22923;DHT22;11627;51.322;22.816;2023-07-20T06:21:08;16.60;99.90
22923;DHT22;11627;51.322;22.816;2023-07-20T06:23:35;16.60;99.90
22923;DHT22;11627;51.322;22.816;2023-07-20T06:26:05;16.50;99.90
22923;DHT22;11627;51.322;22.816;2023-07-20T06:28:34;16.30;95.50
22923;DHT22;11627;51.322;22.816;2023-07-20T06:31:05;16.20;96.10
22923;DHT22;11627;51.322;22.816;2023-07-20T06:33:32;16.10;96.90
22923;DHT22;11627;51.322;22.816;2023-07-20T06:35:59;15.90;98.40
22923;DHT22;11627;51.322;22.816;2023-07-20T06:38:27;15.70;97.50
22923;DHT22;11627;51.322;22.816;2023-07-20T06:40:57;15.70;97.60
22923;DHT22;11627;51.322;22.816;2023-07-20T06:43:24;15.60;97.30
22923;DHT22;11627;51.322;22.816;2023-07-20T06:45:52;15.50;99.00
22923;DHT22;11627;51.322;22.816;2023-07-20T06:48:26;15.40;99.90
22923;DHT22;11627;51.322;22.816;2023-07-20T06:50:56;15.40;99.90
22923;DHT22;11627;51.322;22.816;2023-07-20T06:53:25;15.30;99.90
22923;DHT22;11627;51.322;22.816;2023-07-20T06:55:53;15.20;99.90
22923;DHT22;11627;51.322;22.816;2023-07-20T06:58:20;15.20;99.90
22923;DHT22;11627;51.322;22.816;2023-07-20T07:00:50;15.20;99.90
22923;DHT22;11627;51.322;22.816;2023-07-20T07:03:18;15.30;99.90
22923;DHT22;11627;51.322;22.816;2023-07-20T07:05:48;15.40;99.90
22923;DHT22;11627;51.322;22.816;2023-07-20T07:08:15;15.50;99.90
22923;DHT22;11627;51.322;22.816;2023-07-20T07:10:42;15.60;99.90
22923;DHT22;11627;51.322;22.816;2023-07-20T07:13:10;15.70;99.90
22923;DHT22;11627;51.322;22.816;2023-07-20T07:15:36;15.70;99.90
22923;DHT22;11627;51.322;22.816;2023-07-20T07:18:05;15.70;99.90
22923;DHT22;11627;51.322;22.816;2023-07-20T07:20:32;15.80;99.90
22923;DHT22;11627;51.322;22.816;2023-07-20T07:23:01;15.90;99.90
22923;DHT22;11627;51.322;22.816;2023-07-20T07:25:28;15.90;98.30
22923;DHT22;11627;51.322;22.816;2023-07-20T07:27:55;15.90;97.10
22923;DHT22;11627;51.322;22.816;2023-07-20T07:30:23;15.90;97.30
22923;DHT22;11627;51.322;22.816;2023-07-20T07:32:51;15.70;97.80
22923;DHT22;11627;51.322;22.816;2023-07-20T07:35:19;15.60;98.70
22923;DHT22;11627;51.322;22.816;2023-07-20T07:37:47;15.60;99.00
22923;DHT22;11627;51.322;22.816;2023-07-20T07:40:13;15.50;99.70
22923;DHT22;11627;51.322;22.816;2023-07-20T07:42:41;15.40;99.90
22923;DHT22;11627;51.322;22.816;2023-07-20T07:45:07;15.40;99.90
22923;DHT22;11627;51.322;22.816;2023-07-20T07:47:37;15.40;99.90
22923;DHT22;11627;51.322;22.816;2023-07-20T07:50:04;15.50;99.90
22923;DHT22;11627;51.322;22.816;2023-07-20T07:52:33;15.40;99.90
22923;DHT22;11627;51.322;22.816;2023-07-20T07:55:01;15.40;99.90
22923;DHT22;11627;51.322;22.816;2023-07-20T07:57:29;15.30;99.90
22923;DHT22;11627;51.322;22.816;2023-07-20T07:59:58;15.30;99.90
22923;DHT22;11627;51.322;22.816;2023-07-20T08:02:26;15.30;99.90
22923;DHT22;11627;51.322;22.816;2023-07-20T08:04:53;15.30;99.90
22923;DHT22;11627;51.322;22.816;2023-07-20T08:07:22;15.30;99.90
22923;DHT22;11627;51.322;22.816;2023-07-20T08:09:50;15.30;99.90
22923;DHT22;11627;51.322;22.816;2023-07-20T08:12:18;15.40;99.90
22923;DHT22;11627;51.322;22.816;2023-07-20T08:14:47;15.40;99.90
22923;DHT22;11627;51.322;22.816;2023-07-20T08:17:16;15.40;99.90
22923;DHT22;11627;51.322;22.816;2023-07-20T08:19:43;15.40;99.90
22923;DHT22;11627;51.322;22.816;2023-07-20T08:22:10;15.40;99.90
22923;DHT22;11627;51.322;22.816;2023-07-20T08:24:42;15.50;99.90
22923;DHT22;11627;51.322;22.816;2023-07-20T08:27:10;15.50;99.90
22923;DHT22;11627;51.322;22.816;2023-07-20T08:29:37;15.50;99.90
22923;DHT22;11627;51.322;22.816;2023-07-20T08:32:08;15.60;99.90
22923;DHT22;11627;51.322;22.816;2023-07-20T08:34:35;15.60;99.90
22923;DHT22;11627;51.322;22.816;2023-07-20T08:37:02;15.60;99.90
22923;DHT22;11627;51.322;22.816;2023-07-20T08:39:29;15.60;99.90
22923;DHT22;11627;51.322;22.816;2023-07-20T08:41:59;15.60;99.90
22923;DHT22;11627;51.322;22.816;2023-07-20T08:44:33;15.60;99.90
22923;DHT22;11627;51.322;22.816;2023-07-20T08:47:01;15.70;99.90
22923;DHT22;11627;51.322;22.816;2023-07-20T08:49:32;15.70;99.90
22923;DHT22;11627;51.322;22.816;2023-07-20T08:51:59;15.70;99.90
22923;DHT22;11627;51.322;22.816;2023-07-20T08:54:30;15.70;99.90
22923;DHT22;11627;51.322;22.816;2023-07-20T08:57:03;15.80;99.90
22923;DHT22;11627;51.322;22.816;2023-07-20T08:59:32;15.80;99.90
22923;DHT22;11627;51.322;22.816;2023-07-20T09:02:02;15.70;99.90
22923;DHT22;11627;51.322;22.816;2023-07-20T09:04:32;15.80;99.90
22923;DHT22;11627;51.322;22.816;2023-07-20T09:07:00;15.80;99.90
22923;DHT22;11627;51.322;22.816;2023-07-20T09:09:28;15.90;99.90
22923;DHT22;11627;51.322;22.816;2023-07-20T09:11:55;16.00;99.90
22923;DHT22;11627;51.322;22.816;2023-07-20T09:14:23;16.10;99.90
22923;DHT22;11627;51.322;22.816;2023-07-20T09:16:55;16.10;99.90
22923;DHT22;11627;51.322;22.816;2023-07-20T09:19:24;16.10;99.90
22923;DHT22;11627;51.322;22.816;2023-07-20T09:21:52;16.20;99.90
22923;DHT22;11627;51.322;22.816;2023-07-20T09:24:21;16.20;99.90
22923;DHT22;11627;51.322;22.816;2023-07-20T09:26:49;16.20;99.90
22923;DHT22;11627;51.322;22.816;2023-07-20T09:29:20;16.30;99.90
22923;DHT22;11627;51.322;22.816;2023-07-20T09:32:05;16.40;99.50
22923;DHT22;11627;51.322;22.816;2023-07-20T09:34:33;16.40;98.80
22923;DHT22;11627;51.322;22.816;2023-07-20T09:37:00;16.40;98.20
22923;DHT22;11627;51.322;22.816;2023-07-20T09:39:28;16.50;99.20
22923;DHT22;11627;51.322;22.816;2023-07-20T09:41:59;16.50;99.30
22923;DHT22;11627;51.322;22.816;2023-07-20T09:44:29;16.60;96.60
22923;DHT22;11627;51.322;22.816;2023-07-20T09:46:57;16.30;96.30
22923;DHT22;11627;51.322;22.816;2023-07-20T09:49:24;16.30;98.70
22923;DHT22;11627;51.322;22.816;2023-07-20T09:51:51;16.30;98.10
22923;DHT22;11627;51.322;22.816;2023-07-20T09:54:21;16.40;98.00
22923;DHT22;11627;51.322;22.816;2023-07-20T09:56:51;16.50;99.90
22923;DHT22;11627;51.322;22.816;2023-07-20T09:59:19;16.50;99.60
22923;DHT22;11627;51.322;22.816;2023-07-20T10:01:46;16.60;98.90
22923;DHT22;11627;51.322;22.816;2023-07-20T10:04:14;16.70;92.90
22923;DHT22;11627;51.322;22.816;2023-07-20T10:06:46;16.80;92.00
22923;DHT22;11627;51.322;22.816;2023-07-20T10:09:15;16.90;93.60
22923;DHT22;11627;51.322;22.816;2023-07-20T10:11:46;17.00;90.20
22923;DHT22;11627;51.322;22.816;2023-07-20T10:14:20;17.20;92.90
22923;DHT22;11627;51.322;22.816;2023-07-20T10:16:57;17.30;86.60
22923;DHT22;11627;51.322;22.816;2023-07-20T10:19:50;17.50;90.70
22923;DHT22;11627;51.322;22.816;2023-07-20T10:22:26;17.50;84.70
22923;DHT22;11627;51.322;22.816;2023-07-20T10:24:54;17.60;85.90
22923;DHT22;11627;51.322;22.816;2023-07-20T10:27:24;17.60;88.70
22923;DHT22;11627;51.322;22.816;2023-07-20T10:29:51;17.50;81.10
22923;DHT22;11627;51.322;22.816;2023-07-20T10:32:19;17.50;77.50
22923;DHT22;11627;51.322;22.816;2023-07-20T10:34:52;17.40;79.30
22923;DHT22;11627;51.322;22.816;2023-07-20T10:40:37;17.40;72.60
22923;DHT22;11627;51.322;22.816;2023-07-20T10:43:06;17.40;73.10
22923;DHT22;11627;51.322;22.816;2023-07-20T10:45:44;17.40;85.90
22923;DHT22;11627;51.322;22.816;2023-07-20T10:48:19;17.50;90.30
22923;DHT22;11627;51.322;22.816;2023-07-20T10:51:27;17.50;85.20
22923;DHT22;11627;51.322;22.816;2023-07-20T10:53:52;17.70;71.70
22923;DHT22;11627;51.322;22.816;2023-07-20T10:56:21;17.70;60.20
22923;DHT22;11627;51.322;22.816;2023-07-20T10:58:48;17.90;70.50
22923;DHT22;11627;51.322;22.816;2023-07-20T11:01:17;18.00;67.70
22923;DHT22;11627;51.322;22.816;2023-07-20T11:03:48;18.00;49.00
22923;DHT22;11627;51.322;22.816;2023-07-20T11:08:56;18.00;60.00
22923;DHT22;11627;51.322;22.816;2023-07-20T11:11:27;18.20;67.20
22923;DHT22;11627;51.322;22.816;2023-07-20T11:14:01;18.30;59.30
22923;DHT22;11627;51.322;22.816;2023-07-20T11:19:22;18.20;45.90
22923;DHT22;11627;51.322;22.816;2023-07-20T11:21:53;18.10;37.10
22923;DHT22;11627;51.322;22.816;2023-07-20T11:24:20;18.10;33.70
22923;DHT22;11627;51.322;22.816;2023-07-20T11:29:19;18.20;33.00
22923;DHT22;11627;51.322;22.816;2023-07-20T11:31:46;18.30;25.90
22923;DHT22;11627;51.322;22.816;2023-07-20T11:34:20;18.50;23.80
22923;DHT22;11627;51.322;22.816;2023-07-20T11:36:48;18.50;23.60
22923;DHT22;11627;51.322;22.816;2023-07-20T11:39:16;18.80;39.40
22923;DHT22;11627;51.322;22.816;2023-07-20T11:41:47;18.80;17.70
22923;DHT22;11627;51.322;22.816;2023-07-20T11:44:18;18.90;18.90
22923;DHT22;11627;51.322;22.816;2023-07-20T11:46:45;18.90;4.10
22923;DHT22;11627;51.322;22.816;2023-07-20T11:49:12;18.90;4.10
22923;DHT22;11627;51.322;22.816;2023-07-20T11:51:39;19.00;19.10
22923;DHT22;11627;51.322;22.816;2023-07-20T11:54:07;18.90;12.90
22923;DHT22;11627;51.322;22.816;2023-07-20T11:56:34;19.00;21.20
22923;DHT22;11627;51.322;22.816;2023-07-20T11:59:00;19.10;4.20
22923;DHT22;11627;51.322;22.816;2023-07-20T12:01:29;19.30;4.40
22923;DHT22;11627;51.322;22.816;2023-07-20T12:03:59;19.40;1.00
22923;DHT22;11627;51.322;22.816;2023-07-20T12:06:26;19.40;1.00
22923;DHT22;11627;51.322;22.816;2023-07-20T12:08:57;19.50;1.00
22923;DHT22;11627;51.322;22.816;2023-07-20T12:11:37;19.50;1.00
22923;DHT22;11627;51.322;22.816;2023-07-20T12:14:09;19.60;1.00
22923;DHT22;11627;51.322;22.816;2023-07-20T12:16:36;19.40;1.00
22923;DHT22;11627;51.322;22.816;2023-07-20T12:19:12;19.20;1.00
22923;DHT22;11627;51.322;22.816;2023-07-20T12:21:45;19.10;1.00
22923;DHT22;11627;51.322;22.816;2023-07-20T12:24:13;19.00;1.00
22923;DHT22;11627;51.322;22.816;2023-07-20T12:26:41;19.00;1.00
22923;DHT22;11627;51.322;22.816;2023-07-20T12:29:11;19.00;1.00
22923;DHT22;11627;51.322;22.816;2023-07-20T12:31:37;19.10;1.00
22923;DHT22;11627;51.322;22.816;2023-07-20T12:34:03;19.20;1.00
22923;DHT22;11627;51.322;22.816;2023-07-20T12:36:29;19.30;1.00
22923;DHT22;11627;51.322;22.816;2023-07-20T12:38:56;19.50;1.00
22923;DHT22;11627;51.322;22.816;2023-07-20T12:41:22;19.50;1.00
22923;DHT22;11627;51.322;22.816;2023-07-20T12:43:48;19.50;1.00
22923;DHT22;11627;51.322;22.816;2023-07-20T12:46:15;19.60;1.00
22923;DHT22;11627;51.322;22.816;2023-07-20T12:48:41;19.60;1.00
22923;DHT22;11627;51.322;22.816;2023-07-20T12:51:08;19.60;1.00
22923;DHT22;11627;51.322;22.816;2023-07-20T12:53:35;19.90;1.00
22923;DHT22;11627;51.322;22.816;2023-07-20T12:56:01;19.80;99.90
22923;DHT22;11627;51.322;22.816;2023-07-20T12:58:27;19.80;1.00
22923;DHT22;11627;51.322;22.816;2023-07-20T13:00:53;19.80;99.90
22923;DHT22;11627;51.322;22.816;2023-07-20T13:03:19;19.60;99.90
22923;DHT22;11627;51.322;22.816;2023-07-20T13:05:48;19.30;99.90
22923;DHT22;11627;51.322;22.816;2023-07-20T13:08:15;19.30;99.90
22923;DHT22;11627;51.322;22.816;2023-07-20T13:10:41;19.30;99.90
22923;DHT22;11627;51.322;22.816;2023-07-20T13:13:08;19.20;99.90
22923;DHT22;11627;51.322;22.816;2023-07-20T13:15:42;19.30;99.90
22923;DHT22;11627;51.322;22.816;2023-07-20T13:18:09;19.20;99.90
22923;DHT22;11627;51.322;22.816;2023-07-20T13:20:35;19.20;99.90
22923;DHT22;11627;51.322;22.816;2023-07-20T13:23:01;19.20;99.90
22923;DHT22;11627;51.322;22.816;2023-07-20T13:25:27;19.20;1.00
22923;DHT22;11627;51.322;22.816;2023-07-20T13:27:53;19.30;1.00
22923;DHT22;11627;51.322;22.816;2023-07-20T13:30:19;19.50;1.00
22923;DHT22;11627;51.322;22.816;2023-07-20T13:32:47;19.70;99.90
22923;DHT22;11627;51.322;22.816;2023-07-20T13:35:13;19.80;99.90
22923;DHT22;11627;51.322;22.816;2023-07-20T13:37:39;20.00;99.90
22923;DHT22;11627;51.322;22.816;2023-07-20T13:40:05;20.10;99.90
22923;DHT22;11627;51.322;22.816;2023-07-20T13:42:34;20.10;99.90
22923;DHT22;11627;51.322;22.816;2023-07-20T13:45:00;20.10;99.90
22923;DHT22;11627;51.322;22.816;2023-07-20T13:47:26;20.10;27.90
22923;DHT22;11627;51.322;22.816;2023-07-20T13:49:52;20.20;99.90
22923;DHT22;11627;51.322;22.816;2023-07-20T13:52:18;20.40;99.90
22923;DHT22;11627;51.322;22.816;2023-07-20T13:54:44;20.40;99.90
22923;DHT22;11627;51.322;22.816;2023-07-20T13:57:10;20.60;99.90
22923;DHT22;11627;51.322;22.816;2023-07-20T13:59:36;20.70;1.00
22923;DHT22;11627;51.322;22.816;2023-07-20T14:02:03;20.80;5.20
22923;DHT22;11627;51.322;22.816;2023-07-20T14:04:29;21.10;99.90
22923;DHT22;11627;51.322;22.816;2023-07-20T14:06:55;21.20;1.00
22923;DHT22;11627;51.322;22.816;2023-07-20T14:09:21;21.30;1.00
22923;DHT22;11627;51.322;22.816;2023-07-20T14:11:47;21.50;99.90
22923;DHT22;11627;51.322;22.816;2023-07-20T14:14:12;21.40;99.90
22923;DHT22;11627;51.322;22.816;2023-07-20T14:16:39;21.40;99.90
22923;DHT22;11627;51.322;22.816;2023-07-20T14:19:05;21.40;45.70
22923;DHT22;11627;51.322;22.816;2023-07-20T14:21:31;21.10;14.50
22923;DHT22;11627;51.322;22.816;2023-07-20T14:23:59;21.20;99.90
22923;DHT22;11627;51.322;22.816;2023-07-20T14:26:26;21.10;91.70
22923;DHT22;11627;51.322;22.816;2023-07-20T14:28:57;21.00;97.80
22923;DHT22;11627;51.322;22.816;2023-07-20T14:31:27;20.90;59.80
22923;DHT22;11627;51.322;22.816;2023-07-20T14:33:53;21.00;99.90
22923;DHT22;11627;51.322;22.816;2023-07-20T14:36:19;21.00;99.90
22923;DHT22;11627;51.322;22.816;2023-07-20T14:38:48;20.90;99.90
22923;DHT22;11627;51.322;22.816;2023-07-20T14:41:16;20.90;99.90
22923;DHT22;11627;51.322;22.816;2023-07-20T14:43:44;20.80;99.90
22923;DHT22;11627;51.322;22.816;2023-07-20T14:46:13;20.90;99.90
22923;DHT22;11627;51.322;22.816;2023-07-20T14:48:41;20.90;99.90
22923;DHT22;11627;51.322;22.816;2023-07-20T14:51:09;21.00;99.90
22923;DHT22;11627;51.322;22.816;2023-07-20T14:53:35;20.90;65.70
22923;DHT22;11627;51.322;22.816;2023-07-20T14:56:01;20.80;99.90
22923;DHT22;11627;51.322;22.816;2023-07-20T14:58:27;20.80;93.40
22923;DHT22;11627;51.322;22.816;2023-07-20T15:00:55;20.90;90.10
22923;DHT22;11627;51.322;22.816;2023-07-20T15:03:20;21.00;91.30
22923;DHT22;11627;51.322;22.816;2023-07-20T15:05:48;21.20;16.70
22923;DHT22;11627;51.322;22.816;2023-07-20T15:08:13;21.40;1.00
22923;DHT22;11627;51.322;22.816;2023-07-20T15:10:39;21.40;1.00
22923;DHT22;11627;51.322;22.816;2023-07-20T15:13:05;21.40;99.90
22923;DHT22;11627;51.322;22.816;2023-07-20T15:15:31;21.20;1.00
22923;DHT22;11627;51.322;22.816;2023-07-20T15:17:57;21.00;99.90
22923;DHT22;11627;51.322;22.816;2023-07-20T15:20:23;20.80;1.00
22923;DHT22;11627;51.322;22.816;2023-07-20T15:22:49;20.60;40.10
22923;DHT22;11627;51.322;22.816;2023-07-20T15:25:15;20.60;40.60
22923;DHT22;11627;51.322;22.816;2023-07-20T15:27:42;20.40;16.50
22923;DHT22;11627;51.322;22.816;2023-07-20T15:30:09;20.50;68.40
22923;DHT22;11627;51.322;22.816;2023-07-20T15:32:37;20.40;94.10
22923;DHT22;11627;51.322;22.816;2023-07-20T15:35:03;20.30;99.90
22923;DHT22;11627;51.322;22.816;2023-07-20T15:37:31;20.30;99.90
22923;DHT22;11627;51.322;22.816;2023-07-20T15:39:57;20.30;99.90
22923;DHT22;11627;51.322;22.816;2023-07-20T15:42:24;20.20;99.90
22923;DHT22;11627;51.322;22.816;2023-07-20T15:44:50;20.20;99.90
22923;DHT22;11627;51.322;22.816;2023-07-20T15:47:18;20.10;99.90
22923;DHT22;11627;51.322;22.816;2023-07-20T15:49:45;20.00;99.90
22923;DHT22;11627;51.322;22.816;2023-07-20T15:52:12;20.00;99.90